createdAt,value
2022-12-04T00:00:15.170Z,3.30
2022-12-04T00:07:29.176Z,3.20
2022-12-04T00:14:30.399Z,3.20
2022-12-04T00:21:33.808Z,3.20
2022-12-04T00:28:42.540Z,3.20
2022-12-04T00:35:43.653Z,3.20
2022-12-04T00:42:44.878Z,3.20
2022-12-04T00:49:48.872Z,3.20
2022-12-04T00:56:49.297Z,3.20
2022-12-04T01:03:51.089Z,3.20
2022-12-04T01:10:51.777Z,3.10
2022-12-04T01:17:52.109Z,3.00
2022-12-04T01:24:55.938Z,3.10
2022-12-04T01:31:56.418Z,3.00
2022-12-04T01:38:57.235Z,3.10
2022-12-04T01:45:59.575Z,3.00
2022-12-04T01:53:00.113Z,3.00
2022-12-04T02:00:04.817Z,3.10
2022-12-04T02:07:05.672Z,3.00
2022-12-04T02:14:33.181Z,3.00
2022-12-04T02:21:40.372Z,3.00
2022-12-04T02:28:59.623Z,3.00
2022-12-04T02:36:06.951Z,3.00
2022-12-04T02:43:11.310Z,3.10
2022-12-04T02:50:22.198Z,3.00
2022-12-04T02:57:41.436Z,3.10
2022-12-04T03:04:46.768Z,3.00
2022-12-04T03:11:52.283Z,3.00
2022-12-04T03:19:03.359Z,3.00
2022-12-04T03:26:18.716Z,2.90
2022-12-04T03:33:23.180Z,2.90
2022-12-04T03:40:37.346Z,2.90
2022-12-04T03:47:51.728Z,2.90
2022-12-04T03:55:04.631Z,2.90
2022-12-04T04:02:08.330Z,2.80
2022-12-04T04:09:19.610Z,2.70
2022-12-04T04:16:41.672Z,2.80
2022-12-04T04:24:04.710Z,2.70
2022-12-04T04:31:10.686Z,2.70
2022-12-04T04:38:36.903Z,2.60
2022-12-04T04:45:45.011Z,2.60
2022-12-04T04:52:53.529Z,2.60
2022-12-04T04:59:54.488Z,2.60
2022-12-04T05:06:55.400Z,2.60
2022-12-04T05:14:37.438Z,2.60
2022-12-04T05:21:38.807Z,2.50
2022-12-04T05:28:42.023Z,2.50
2022-12-04T05:35:42.605Z,2.50
2022-12-04T05:42:43.423Z,2.50
2022-12-04T05:49:44.026Z,2.50
2022-12-04T05:56:45.137Z,2.50
2022-12-04T06:03:45.838Z,2.50
2022-12-04T06:10:46.127Z,2.50
2022-12-04T06:17:46.766Z,2.40
2022-12-04T06:24:47.471Z,2.50
2022-12-04T06:31:47.762Z,2.40
2022-12-04T06:38:49.627Z,2.40
2022-12-04T06:46:00.257Z,2.30
2022-12-04T06:53:06.602Z,2.30
2022-12-04T07:00:09.352Z,2.20
2022-12-04T07:07:10.159Z,2.20
2022-12-04T07:14:12.160Z,2.20
2022-12-04T07:21:17.556Z,2.10
2022-12-04T07:28:17.894Z,2.20
2022-12-04T07:35:18.728Z,2.20
2022-12-04T07:42:24.104Z,2.10
2022-12-04T07:49:24.919Z,2.10
2022-12-04T07:56:25.635Z,2.00
2022-12-04T08:03:27.056Z,1.90
2022-12-04T08:10:27.358Z,1.90
2022-12-04T08:17:28.175Z,1.90
2022-12-04T08:24:28.739Z,1.90
2022-12-04T08:31:30.912Z,1.90
2022-12-04T08:38:31.541Z,2.00
2022-12-04T08:45:32.363Z,2.00
2022-12-04T08:52:32.622Z,2.10
2022-12-04T08:59:33.206Z,2.10
2022-12-04T09:06:33.950Z,2.10
2022-12-04T09:13:35.193Z,2.10
2022-12-04T09:20:36.085Z,2.20
2022-12-04T09:27:37.765Z,2.20
2022-12-04T09:34:38.419Z,2.20
2022-12-04T09:41:58.054Z,2.20
2022-12-04T09:49:02.254Z,2.30
2022-12-04T09:56:06.600Z,2.20
2022-12-04T10:03:16.700Z,2.30
2022-12-04T10:10:31.545Z,2.30
2022-12-04T10:17:40.311Z,2.20
2022-12-04T10:24:55.938Z,2.20
2022-12-04T10:32:26.849Z,2.30
2022-12-04T10:39:44.535Z,2.30
2022-12-04T10:46:58.637Z,2.40
2022-12-04T10:54:00.369Z,2.40
2022-12-04T11:01:06.483Z,2.50
2022-12-04T11:08:08.077Z,2.50
2022-12-04T11:15:14.925Z,2.60
2022-12-04T11:22:19.358Z,2.70
2022-12-04T11:29:35.729Z,2.70
2022-12-04T11:36:41.927Z,2.70
2022-12-04T11:43:49.940Z,2.80
2022-12-04T11:51:01.560Z,2.80
2022-12-04T11:58:29.676Z,2.90
2022-12-04T12:06:07.342Z,2.90
2022-12-04T12:13:25.642Z,3.00
2022-12-04T12:20:47.156Z,2.90
2022-12-04T12:28:16.821Z,2.80
2022-12-04T12:35:27.601Z,2.90
2022-12-04T12:42:36.152Z,3.00
2022-12-04T12:49:58.849Z,3.00
2022-12-04T12:57:10.595Z,3.00
2022-12-04T13:04:43.006Z,3.00
2022-12-04T13:11:48.559Z,3.00
2022-12-04T13:19:10.108Z,3.10
2022-12-04T13:26:49.149Z,3.10
2022-12-04T13:34:07.569Z,3.00
2022-12-04T13:41:14.924Z,2.90
2022-12-04T13:48:27.994Z,2.90
2022-12-04T13:55:37.670Z,2.90
2022-12-04T14:02:38.901Z,2.90
2022-12-04T14:09:42.720Z,2.90
2022-12-04T14:16:48.345Z,3.00
2022-12-04T14:23:49.911Z,3.00
2022-12-04T14:31:08.584Z,3.00
2022-12-04T14:38:18.592Z,3.00
2022-12-04T14:45:29.917Z,3.00
2022-12-04T14:52:38.772Z,3.10
2022-12-04T14:59:47.410Z,3.10
2022-12-04T15:06:53.083Z,3.10
2022-12-04T15:14:07.905Z,3.10
2022-12-04T15:21:11.617Z,3.10
2022-12-04T15:28:34.016Z,3.00
2022-12-04T15:35:34.815Z,3.00
2022-12-04T15:42:35.398Z,3.00
2022-12-04T15:49:35.867Z,3.00
2022-12-04T15:56:36.480Z,3.00
2022-12-04T16:03:44.375Z,3.00
2022-12-04T16:11:03.838Z,3.00
2022-12-04T16:18:06.107Z,3.00
2022-12-04T16:25:07.410Z,3.00
2022-12-04T16:32:12.604Z,3.00
2022-12-04T16:39:13.058Z,3.00
2022-12-04T16:46:15.778Z,3.00
2022-12-04T16:53:18.461Z,3.00
2022-12-04T17:00:19.361Z,3.10
2022-12-04T17:07:20.461Z,3.00
2022-12-04T17:14:21.286Z,3.10
2022-12-04T17:21:22.151Z,3.10
2022-12-04T17:28:22.486Z,3.10
2022-12-04T17:35:22.875Z,3.10
2022-12-04T17:42:23.415Z,3.10
2022-12-04T17:49:24.031Z,3.10
2022-12-04T17:56:25.244Z,3.10
2022-12-04T18:03:26.640Z,3.10
2022-12-04T18:10:27.322Z,3.10
2022-12-04T18:17:28.272Z,3.10
2022-12-04T18:24:29.177Z,3.20
2022-12-04T18:31:30.409Z,3.20
2022-12-04T18:38:32.027Z,3.20
2022-12-04T18:45:32.561Z,3.20
2022-12-04T18:52:36.605Z,3.20
2022-12-04T18:59:37.548Z,3.20
2022-12-04T19:06:46.753Z,3.20
2022-12-04T19:13:46.946Z,3.30
2022-12-04T19:20:47.403Z,3.30
2022-12-04T19:27:47.838Z,3.30
2022-12-04T19:34:49.511Z,3.30
2022-12-04T19:41:50.043Z,3.30
2022-12-04T19:48:50.685Z,3.30
2022-12-04T19:55:51.133Z,3.30
2022-12-04T20:02:51.662Z,3.30
2022-12-04T20:09:54.308Z,3.30
2022-12-04T20:16:54.935Z,3.30
2022-12-04T20:23:56.262Z,3.30
2022-12-04T20:30:57.461Z,3.40
2022-12-04T20:37:57.568Z,3.30
2022-12-04T20:44:57.824Z,3.30
2022-12-04T20:51:58.249Z,3.30
2022-12-04T20:59:00.859Z,3.30
2022-12-04T21:06:01.595Z,3.30
2022-12-04T21:13:20.778Z,3.20
2022-12-04T21:20:21.067Z,3.20
2022-12-04T21:27:21.580Z,3.20
2022-12-04T21:34:21.725Z,3.30
2022-12-04T21:41:41.908Z,3.20
2022-12-04T21:48:44.527Z,3.30
2022-12-04T21:55:55.818Z,3.30
2022-12-04T22:02:59.595Z,3.40
2022-12-04T22:10:04.110Z,3.40
2022-12-04T22:17:07.325Z,3.30
2022-12-04T22:24:10.395Z,3.30
2022-12-04T22:31:13.799Z,3.30
2022-12-04T22:38:14.441Z,3.30
2022-12-04T22:45:14.982Z,3.30
2022-12-04T22:52:15.619Z,3.20
2022-12-04T22:59:15.752Z,3.20
2022-12-04T23:06:17.778Z,3.20
2022-12-04T23:13:18.562Z,3.10
2022-12-04T23:20:19.039Z,3.10
2022-12-04T23:27:19.385Z,3.10
2022-12-04T23:34:20.045Z,3.10
2022-12-04T23:41:23.195Z,3.10
2022-12-04T23:48:24.439Z,3.10
2022-12-04T23:55:28.563Z,3.10
